createdAt,value
2023-01-22T00:00:16.410Z,26.63
2023-01-22T00:01:16.134Z,26.65
2023-01-22T00:02:16.192Z,26.69
2023-01-22T00:03:16.174Z,26.69
2023-01-22T00:04:16.145Z,26.63
2023-01-22T00:05:16.120Z,26.66
2023-01-22T00:06:16.140Z,26.66
2023-01-22T00:07:16.107Z,26.69
2023-01-22T00:08:16.109Z,26.69
2023-01-22T00:09:16.098Z,26.69
2023-01-22T00:10:16.320Z,26.65
2023-01-22T00:11:16.085Z,26.63
2023-01-22T00:12:16.089Z,26.65
2023-01-22T00:13:16.076Z,26.65
2023-01-22T00:14:16.115Z,26.69
2023-01-22T00:15:16.085Z,26.72
2023-01-22T00:16:16.128Z,26.66
2023-01-22T00:17:16.083Z,26.68
2023-01-22T00:18:16.078Z,26.72
2023-01-22T00:19:16.072Z,26.69
2023-01-22T00:20:16.552Z,26.64
2023-01-22T00:21:16.110Z,26.67
2023-01-22T00:22:16.070Z,26.71
2023-01-22T00:23:16.063Z,26.66
2023-01-22T00:24:16.060Z,26.72
2023-01-22T00:25:16.055Z,26.66
2023-01-22T00:26:16.071Z,26.68
2023-01-22T00:27:16.053Z,26.71
2023-01-22T00:28:16.056Z,26.69
2023-01-22T00:29:16.041Z,26.71
2023-01-22T00:30:16.380Z,26.67
2023-01-22T00:31:16.263Z,26.66
2023-01-22T00:32:16.225Z,26.74
2023-01-22T00:33:16.030Z,26.68
2023-01-22T00:34:16.016Z,26.66
2023-01-22T00:35:16.772Z,26.69
2023-01-22T00:36:16.027Z,26.71
2023-01-22T00:37:16.053Z,26.69
2023-01-22T00:38:16.017Z,26.66
2023-01-22T00:39:16.007Z,26.71
2023-01-22T00:40:16.573Z,26.71
2023-01-22T00:41:16.002Z,26.63
2023-01-22T00:42:15.997Z,26.67
2023-01-22T00:43:16.063Z,26.71
2023-01-22T00:44:16.003Z,26.69
2023-01-22T00:45:16.000Z,26.69
2023-01-22T00:46:16.030Z,26.72
2023-01-22T00:47:15.984Z,26.69
2023-01-22T00:48:15.977Z,26.67
2023-01-22T00:49:15.985Z,26.66
2023-01-22T00:50:16.231Z,26.68
2023-01-22T00:51:16.021Z,26.71
2023-01-22T00:52:15.966Z,26.68
2023-01-22T00:53:15.952Z,26.71
2023-01-22T00:54:15.960Z,26.65
2023-01-22T00:55:15.949Z,26.68
2023-01-22T00:56:15.957Z,26.72
2023-01-22T00:57:15.946Z,26.74
2023-01-22T00:58:15.932Z,26.71
2023-01-22T00:59:15.937Z,26.72
2023-01-22T01:00:16.306Z,26.71
2023-01-22T01:01:15.929Z,26.75
2023-01-22T01:02:15.982Z,26.71
2023-01-22T01:03:15.919Z,26.63
2023-01-22T01:04:15.913Z,26.69
2023-01-22T01:05:15.917Z,26.69
2023-01-22T01:06:15.916Z,26.72
2023-01-22T01:07:15.913Z,26.72
2023-01-22T01:08:15.924Z,26.68
2023-01-22T01:09:15.918Z,26.72
2023-01-22T01:20:16.111Z,26.66
2023-01-22T01:21:15.919Z,26.71
2023-01-22T01:22:15.903Z,26.68
2023-01-22T01:23:15.896Z,26.73
2023-01-22T01:24:15.891Z,26.74
2023-01-22T01:25:15.897Z,26.72
2023-01-22T01:26:15.913Z,26.67
2023-01-22T01:27:15.883Z,26.72
2023-01-22T01:28:15.910Z,26.71
2023-01-22T01:29:15.962Z,26.77
2023-01-22T01:30:16.302Z,26.72
2023-01-22T01:31:16.068Z,26.72
2023-01-22T01:32:15.876Z,26.68
2023-01-22T01:33:15.891Z,26.69
2023-01-22T01:34:15.885Z,26.68
2023-01-22T01:35:15.846Z,26.72
2023-01-22T01:36:15.856Z,26.69
2023-01-22T01:37:15.844Z,26.69
2023-01-22T01:38:15.835Z,26.69
2023-01-22T01:39:15.866Z,26.74
2023-01-22T01:40:16.136Z,26.69
2023-01-22T01:41:15.852Z,26.71
2023-01-22T01:42:15.830Z,26.68
2023-01-22T01:43:15.850Z,26.71
2023-01-22T01:44:15.830Z,26.68
2023-01-22T01:45:15.917Z,26.69
2023-01-22T01:46:15.839Z,26.68
2023-01-22T01:47:15.819Z,26.71
2023-01-22T01:48:15.807Z,26.72
2023-01-22T01:49:15.824Z,26.69
2023-01-22T01:50:15.992Z,26.72
2023-01-22T01:51:15.855Z,26.74
2023-01-22T01:52:15.788Z,26.72
2023-01-22T01:53:15.789Z,26.74
2023-01-22T01:54:15.826Z,26.71
2023-01-22T01:55:15.796Z,26.69
2023-01-22T01:56:15.798Z,26.72
2023-01-22T01:57:15.785Z,26.68
2023-01-22T01:58:15.771Z,26.69
2023-01-22T01:59:15.769Z,26.72
2023-01-22T02:00:16.093Z,26.75
2023-01-22T02:01:15.856Z,26.71
2023-01-22T02:02:15.860Z,26.71
2023-01-22T02:03:15.760Z,26.71
2023-01-22T02:04:15.758Z,26.72
2023-01-22T02:05:15.747Z,26.72
2023-01-22T02:06:15.754Z,26.74
2023-01-22T02:07:15.747Z,26.72
2023-01-22T02:08:15.737Z,26.74
2023-01-22T02:09:15.737Z,26.74
2023-01-22T02:10:15.829Z,26.71
2023-01-22T02:11:15.726Z,26.68
2023-01-22T02:12:15.717Z,26.72
2023-01-22T02:13:15.720Z,26.72
2023-01-22T02:14:15.708Z,26.72
2023-01-22T02:15:15.706Z,26.68
2023-01-22T02:16:15.767Z,26.67
2023-01-22T02:17:15.799Z,26.72
2023-01-22T02:18:15.687Z,26.73
2023-01-22T02:19:15.685Z,26.71
2023-01-22T02:20:15.785Z,26.77
2023-01-22T02:21:15.674Z,26.72
2023-01-22T02:22:15.679Z,26.72
2023-01-22T02:23:15.676Z,26.72
2023-01-22T02:24:15.680Z,26.72
2023-01-22T02:25:15.682Z,26.72
2023-01-22T02:26:15.733Z,26.69
2023-01-22T02:27:15.669Z,26.74
2023-01-22T02:28:15.653Z,26.71
2023-01-22T02:29:15.660Z,26.69
2023-01-22T02:30:15.808Z,26.71
2023-01-22T02:31:15.721Z,26.71
2023-01-22T02:32:15.659Z,26.72
2023-01-22T02:33:15.729Z,26.72
2023-01-22T02:34:15.681Z,26.72
2023-01-22T02:40:15.920Z,26.73
2023-01-22T02:41:15.614Z,26.73
2023-01-22T02:42:15.661Z,26.74
2023-01-22T02:43:15.600Z,26.72
2023-01-22T02:44:15.616Z,26.72
2023-01-22T02:45:15.617Z,26.77
2023-01-22T02:46:15.610Z,26.72
2023-01-22T02:47:15.605Z,26.77
2023-01-22T02:48:15.593Z,26.78
2023-01-22T02:49:15.683Z,26.78
2023-01-22T02:50:15.874Z,26.69
2023-01-22T02:51:15.603Z,26.77
2023-01-22T02:52:15.570Z,26.81
2023-01-22T02:53:15.560Z,26.78
2023-01-22T02:54:15.565Z,26.77
2023-01-22T02:55:15.554Z,26.78
2023-01-22T02:56:15.547Z,26.77
2023-01-22T02:57:15.550Z,26.72
2023-01-22T02:58:15.546Z,26.78
2023-01-22T02:59:15.531Z,26.75
2023-01-22T03:00:15.659Z,26.73
2023-01-22T03:01:15.531Z,26.80
2023-01-22T03:02:15.575Z,26.77
2023-01-22T03:03:15.565Z,26.75
2023-01-22T03:04:15.517Z,26.72
2023-01-22T03:05:15.604Z,26.74
2023-01-22T03:06:15.509Z,26.75
2023-01-22T03:07:15.504Z,26.75
2023-01-22T03:21:15.554Z,26.75
2023-01-22T16:51:11.603Z,26.78
2023-01-22T17:00:11.571Z,26.81
2023-01-22T17:02:11.534Z,26.77
2023-01-22T17:03:11.498Z,26.73
2023-01-22T17:04:11.466Z,26.79
2023-01-22T17:06:11.471Z,26.73
2023-01-22T17:07:20.485Z,26.78
2023-01-22T17:08:12.360Z,26.84
2023-01-22T17:09:11.334Z,26.72
2023-01-22T17:10:11.311Z,26.79
2023-01-22T17:12:11.237Z,26.73
2023-01-22T17:13:11.223Z,26.75
2023-01-22T17:14:11.294Z,26.79
2023-01-22T17:15:11.184Z,26.77
2023-01-22T17:16:11.162Z,26.76
2023-01-22T17:17:11.130Z,26.76
2023-01-22T17:18:11.092Z,26.73
2023-01-22T17:19:11.077Z,26.72
2023-01-22T17:20:11.054Z,26.78
2023-01-22T17:22:11.005Z,26.75
2023-01-22T17:30:10.849Z,26.76
2023-01-22T18:06:10.392Z,26.72
2023-01-22T18:16:10.424Z,26.72
2023-01-22T18:32:10.124Z,26.75
2023-01-22T18:33:10.074Z,26.78
2023-01-22T18:35:10.016Z,26.69
2023-01-22T18:36:09.985Z,26.73
2023-01-22T18:37:09.956Z,26.73
2023-01-22T18:38:09.931Z,26.76
2023-01-22T18:39:09.938Z,26.75
2023-01-22T18:40:09.868Z,26.73
2023-01-22T18:41:09.851Z,26.73
2023-01-22T18:42:09.801Z,26.76
2023-01-22T18:43:09.797Z,26.73
2023-01-22T18:44:09.757Z,26.72
2023-01-22T18:45:09.713Z,26.72
2023-01-22T18:46:09.733Z,26.72
2023-01-22T18:47:09.662Z,26.75
2023-01-22T18:48:09.638Z,26.75
2023-01-22T18:49:09.609Z,26.75
2023-01-22T18:50:09.700Z,26.76
2023-01-22T18:51:09.691Z,26.70
2023-01-22T18:52:09.622Z,26.72
2023-01-22T18:53:09.634Z,26.66
2023-01-22T18:54:09.634Z,26.75
2023-01-22T18:55:09.660Z,26.73
2023-01-22T18:56:09.630Z,26.73
2023-01-22T18:57:10.491Z,26.73
2023-01-22T19:00:09.723Z,26.70
2023-01-22T19:01:09.655Z,26.75
2023-01-22T19:02:09.642Z,26.72
2023-01-22T19:03:09.685Z,26.72
2023-01-22T19:04:09.666Z,26.76
2023-01-22T19:05:09.709Z,26.76
2023-01-22T19:06:09.761Z,26.78
2023-01-22T19:07:09.686Z,26.73
2023-01-22T19:08:09.682Z,26.73
2023-01-22T19:09:09.769Z,26.69
2023-01-22T19:10:09.700Z,26.75
2023-01-22T19:11:09.705Z,26.73
2023-01-22T19:12:09.755Z,26.70
2023-01-22T19:13:09.725Z,26.72
2023-01-22T19:14:09.748Z,26.72
2023-01-22T19:15:09.718Z,26.68
2023-01-22T19:16:09.885Z,26.73
2023-01-22T19:17:09.734Z,26.73
2023-01-22T19:18:09.720Z,26.72
2023-01-22T19:19:09.709Z,26.69
2023-01-22T19:20:10.491Z,26.75
2023-01-22T19:21:10.569Z,26.76
2023-01-22T19:22:09.799Z,26.79
2023-01-22T19:23:09.734Z,26.73
2023-01-22T19:24:10.572Z,26.69
2023-01-22T19:25:10.488Z,26.75
2023-01-22T19:26:10.604Z,26.75
2023-01-22T19:27:09.741Z,26.72
2023-01-22T19:28:10.578Z,26.75
2023-01-22T19:29:10.808Z,26.68
2023-01-22T19:30:09.735Z,26.75
2023-01-22T19:31:09.813Z,26.75
2023-01-22T19:32:09.790Z,26.72
2023-01-22T19:33:09.755Z,26.72
2023-01-22T19:34:09.758Z,26.72
2023-01-22T19:35:09.778Z,26.72
2023-01-22T19:36:09.751Z,26.73
2023-01-22T19:37:09.781Z,26.75
2023-01-22T19:38:09.829Z,26.73
2023-01-22T19:39:09.772Z,26.72
2023-01-22T19:40:09.756Z,26.68
2023-01-22T19:41:10.492Z,26.70
2023-01-22T19:42:09.789Z,26.73
2023-01-22T19:43:09.798Z,26.69
2023-01-22T19:44:09.770Z,26.69
2023-01-22T19:45:09.766Z,26.70
2023-01-22T19:46:09.830Z,26.73
2023-01-22T19:47:09.779Z,26.72
2023-01-22T19:48:10.484Z,26.72
2023-01-22T19:49:09.807Z,26.70
2023-01-22T19:50:10.548Z,26.70
2023-01-22T19:51:09.843Z,26.67
2023-01-22T19:52:09.821Z,26.70
2023-01-22T19:53:09.832Z,26.72
2023-01-22T19:55:11.533Z,26.72
2023-01-22T19:56:09.822Z,26.75
2023-01-22T19:57:10.615Z,26.73
2023-01-22T19:58:09.836Z,26.74
2023-01-22T19:59:10.487Z,26.69
2023-01-22T20:00:12.993Z,26.73
2023-01-22T20:02:09.721Z,26.73
2023-01-22T20:03:09.630Z,26.74
2023-01-22T20:04:09.604Z,26.68
2023-01-22T20:05:09.589Z,26.72
2023-01-22T20:06:09.567Z,26.73
2023-01-22T20:07:09.551Z,26.68
2023-01-22T20:08:09.531Z,26.73
2023-01-22T20:09:09.471Z,26.69
2023-01-22T20:10:09.543Z,26.75
2023-01-22T20:11:09.439Z,26.68
2023-01-22T20:12:09.462Z,26.70
2023-01-22T20:13:09.383Z,26.74
2023-01-22T20:14:09.356Z,26.73
2023-01-22T20:15:09.329Z,26.76
2023-01-22T20:16:09.346Z,26.73
2023-01-22T20:17:09.293Z,26.70
2023-01-22T20:18:09.253Z,26.73
2023-01-22T20:19:10.233Z,26.72
2023-01-22T20:20:11.030Z,26.72
2023-01-22T20:21:09.995Z,26.73
2023-01-22T20:22:09.187Z,26.75
2023-01-22T20:23:10.060Z,26.70
2023-01-22T20:24:09.116Z,26.70
2023-01-22T20:25:09.089Z,26.68
2023-01-22T20:26:09.158Z,26.70
2023-01-22T20:27:09.043Z,26.67
2023-01-22T20:28:09.010Z,26.70
2023-01-22T20:29:08.988Z,26.70
2023-01-22T20:30:08.974Z,26.75
2023-01-22T20:31:09.003Z,26.73
2023-01-22T20:32:08.933Z,26.73
2023-01-22T20:33:08.893Z,26.67
2023-01-22T20:34:08.868Z,26.70
2023-01-22T20:35:08.848Z,26.73
2023-01-22T20:36:08.826Z,26.73
2023-01-22T20:37:08.814Z,26.72
2023-01-22T20:38:08.778Z,26.69
2023-01-22T20:39:08.782Z,26.73
2023-01-22T20:40:08.778Z,26.76
2023-01-22T20:41:09.556Z,26.67
2023-01-22T20:42:08.801Z,26.70
2023-01-22T20:43:08.744Z,26.73
2023-01-22T20:44:08.695Z,26.72
2023-01-22T20:45:08.741Z,26.76
2023-01-22T20:46:10.522Z,26.70
2023-01-22T20:47:08.607Z,26.75
2023-01-22T20:48:09.477Z,26.76
2023-01-22T20:49:08.599Z,26.69
2023-01-22T20:50:08.597Z,26.69
2023-01-22T20:51:08.632Z,26.67
2023-01-22T20:52:08.608Z,26.73
2023-01-22T20:53:08.598Z,26.72
2023-01-22T20:54:08.594Z,26.75
2023-01-22T20:55:08.590Z,26.72
2023-01-22T20:56:08.593Z,26.70
2023-01-22T20:57:08.649Z,26.72
2023-01-22T20:58:08.695Z,26.72
2023-01-22T20:59:08.618Z,26.70
2023-01-22T21:00:08.636Z,26.76
2023-01-22T21:01:08.691Z,26.73
2023-01-22T21:02:08.671Z,26.73
2023-01-22T21:03:08.622Z,26.78
2023-01-22T21:04:08.678Z,26.75
2023-01-22T21:05:08.615Z,26.73
2023-01-22T21:06:08.622Z,26.72
2023-01-22T21:07:08.619Z,26.75
2023-01-22T21:08:08.627Z,26.70
2023-01-22T21:09:08.647Z,26.76
2023-01-22T21:10:08.657Z,26.73
2023-01-22T21:11:08.669Z,26.75
2023-01-22T21:12:08.648Z,26.76
2023-01-22T21:13:08.636Z,26.76
2023-01-22T21:14:08.742Z,26.72
2023-01-22T21:15:08.643Z,26.78
2023-01-22T21:16:08.667Z,26.78
2023-01-22T21:17:08.652Z,26.78
2023-01-22T21:18:08.641Z,26.75
2023-01-22T21:19:08.643Z,26.72
2023-01-22T21:20:08.628Z,26.79
2023-01-22T21:21:08.659Z,26.78
2023-01-22T21:22:08.649Z,26.78
2023-01-22T21:23:08.643Z,26.73
2023-01-22T21:24:08.625Z,26.79
2023-01-22T21:25:08.634Z,26.82
2023-01-22T21:26:08.635Z,26.79
2023-01-22T21:27:08.631Z,26.79
2023-01-22T21:28:08.644Z,26.76
2023-01-22T21:29:08.653Z,26.79
2023-01-22T21:30:08.720Z,26.78
2023-01-22T21:31:08.631Z,26.79
2023-01-22T21:32:08.643Z,26.76
2023-01-22T21:33:08.704Z,26.82
2023-01-22T21:34:08.648Z,26.76
2023-01-22T21:35:08.632Z,26.76
2023-01-22T21:36:08.627Z,26.81
2023-01-22T21:37:08.641Z,26.77
2023-01-22T21:38:08.622Z,26.84
2023-01-22T21:39:08.647Z,26.81
2023-01-22T21:40:08.624Z,26.81
2023-01-22T21:41:08.625Z,26.82
2023-01-22T21:42:08.626Z,26.78
2023-01-22T21:43:08.632Z,26.78
2023-01-22T21:44:08.625Z,26.81
2023-01-22T21:45:08.637Z,26.78
2023-01-22T21:46:08.781Z,26.79
2023-01-22T21:47:08.636Z,26.84
2023-01-22T21:48:08.637Z,26.85
2023-01-22T21:49:08.635Z,26.78
2023-01-22T21:50:08.617Z,26.81
2023-01-22T21:51:08.631Z,26.79
2023-01-22T21:52:08.614Z,26.81
2023-01-22T21:53:08.625Z,26.81
2023-01-22T21:54:08.603Z,26.82
2023-01-22T21:55:08.611Z,26.79
2023-01-22T21:56:08.617Z,26.81
2023-01-22T21:57:08.620Z,26.79
2023-01-22T21:58:09.039Z,26.82
2023-01-22T21:59:08.616Z,26.77
2023-01-22T22:00:08.621Z,26.84
2023-01-22T22:01:08.681Z,26.82
2023-01-22T22:02:08.759Z,26.84
2023-01-22T22:04:08.635Z,26.81
